sensor_id;sensor_type;location;lat;lon;timestamp;temperature;humidity
38263;DHT22;24054;50.128;19.730;2023-07-13T00:01:53;24.90;65.70
38263;DHT22;24054;50.128;19.730;2023-07-13T00:04:23;24.90;65.60
38263;DHT22;24054;50.128;19.730;2023-07-13T00:06:51;24.90;66.20
38263;DHT22;24054;50.128;19.730;2023-07-13T00:09:19;24.90;65.70
38263;DHT22;24054;50.128;19.730;2023-07-13T00:11:51;24.90;65.60
38263;DHT22;24054;50.128;19.730;2023-07-13T00:14:18;24.90;65.70
38263;DHT22;24054;50.128;19.730;2023-07-13T00:16:46;24.90;66.30
38263;DHT22;24054;50.128;19.730;2023-07-13T00:19:13;24.90;65.70
38263;DHT22;24054;50.128;19.730;2023-07-13T00:21:42;24.90;65.70
38263;DHT22;24054;50.128;19.730;2023-07-13T00:24:10;24.90;65.70
38263;DHT22;24054;50.128;19.730;2023-07-13T00:26:38;24.90;65.60
38263;DHT22;24054;50.128;19.730;2023-07-13T00:29:06;24.90;65.70
38263;DHT22;24054;50.128;19.730;2023-07-13T00:31:35;24.90;65.70
38263;DHT22;24054;50.128;19.730;2023-07-13T00:34:02;24.90;65.80
38263;DHT22;24054;50.128;19.730;2023-07-13T00:36:29;24.90;65.70
38263;DHT22;24054;50.128;19.730;2023-07-13T00:38:58;24.90;65.80
38263;DHT22;24054;50.128;19.730;2023-07-13T00:41:25;24.90;65.70
38263;DHT22;24054;50.128;19.730;2023-07-13T00:43:52;24.90;65.80
38263;DHT22;24054;50.128;19.730;2023-07-13T00:46:24;24.90;65.80
38263;DHT22;24054;50.128;19.730;2023-07-13T00:48:53;24.90;65.80
38263;DHT22;24054;50.128;19.730;2023-07-13T00:51:25;24.90;65.80
38263;DHT22;24054;50.128;19.730;2023-07-13T00:53:54;24.90;65.90
38263;DHT22;24054;50.128;19.730;2023-07-13T00:56:24;24.90;65.80
38263;DHT22;24054;50.128;19.730;2023-07-13T00:58:51;24.90;65.90
38263;DHT22;24054;50.128;19.730;2023-07-13T01:01:19;24.90;65.90
38263;DHT22;24054;50.128;19.730;2023-07-13T01:03:45;24.90;65.90
38263;DHT22;24054;50.128;19.730;2023-07-13T01:06:13;24.90;66.00
38263;DHT22;24054;50.128;19.730;2023-07-13T01:08:40;24.90;66.00
38263;DHT22;24054;50.128;19.730;2023-07-13T01:11:07;24.90;66.00
38263;DHT22;24054;50.128;19.730;2023-07-13T01:13:36;24.90;66.00
38263;DHT22;24054;50.128;19.730;2023-07-13T01:16:05;24.90;65.90
38263;DHT22;24054;50.128;19.730;2023-07-13T01:18:39;24.90;65.90
38263;DHT22;24054;50.128;19.730;2023-07-13T01:21:07;24.90;65.90
38263;DHT22;24054;50.128;19.730;2023-07-13T01:23:34;24.90;65.90
38263;DHT22;24054;50.128;19.730;2023-07-13T01:26:01;24.90;66.00
38263;DHT22;24054;50.128;19.730;2023-07-13T01:28:28;24.90;66.00
38263;DHT22;24054;50.128;19.730;2023-07-13T01:30:57;24.80;65.90
38263;DHT22;24054;50.128;19.730;2023-07-13T01:33:25;24.90;66.00
38263;DHT22;24054;50.128;19.730;2023-07-13T01:35:52;24.80;65.90
38263;DHT22;24054;50.128;19.730;2023-07-13T01:38:22;24.90;66.00
38263;DHT22;24054;50.128;19.730;2023-07-13T01:40:49;24.90;66.00
38263;DHT22;24054;50.128;19.730;2023-07-13T01:43:17;24.90;66.00
38263;DHT22;24054;50.128;19.730;2023-07-13T01:45:44;24.90;66.00
38263;DHT22;24054;50.128;19.730;2023-07-13T01:48:12;24.90;66.00
38263;DHT22;24054;50.128;19.730;2023-07-13T01:50:39;24.90;66.00
38263;DHT22;24054;50.128;19.730;2023-07-13T01:53:06;24.90;66.10
38263;DHT22;24054;50.128;19.730;2023-07-13T01:55:35;24.80;66.00
38263;DHT22;24054;50.128;19.730;2023-07-13T01:58:03;24.80;66.00
38263;DHT22;24054;50.128;19.730;2023-07-13T02:00:31;24.80;66.00
38263;DHT22;24054;50.128;19.730;2023-07-13T02:02:59;24.80;66.00
38263;DHT22;24054;50.128;19.730;2023-07-13T02:05:26;24.90;66.10
38263;DHT22;24054;50.128;19.730;2023-07-13T02:07:53;24.90;66.10
38263;DHT22;24054;50.128;19.730;2023-07-13T02:10:20;24.80;66.00
38263;DHT22;24054;50.128;19.730;2023-07-13T02:12:48;24.80;66.00
38263;DHT22;24054;50.128;19.730;2023-07-13T02:15:16;24.80;66.00
38263;DHT22;24054;50.128;19.730;2023-07-13T02:17:43;24.80;66.10
38263;DHT22;24054;50.128;19.730;2023-07-13T02:20:10;24.80;66.00
38263;DHT22;24054;50.128;19.730;2023-07-13T02:22:37;24.80;66.10
38263;DHT22;24054;50.128;19.730;2023-07-13T02:25:05;24.80;66.10
38263;DHT22;24054;50.128;19.730;2023-07-13T02:27:32;24.80;66.10
38263;DHT22;24054;50.128;19.730;2023-07-13T02:30:00;24.80;66.10
38263;DHT22;24054;50.128;19.730;2023-07-13T02:32:28;24.80;66.10
38263;DHT22;24054;50.128;19.730;2023-07-13T02:34:55;24.80;66.10
38263;DHT22;24054;50.128;19.730;2023-07-13T02:37:21;24.80;66.00
38263;DHT22;24054;50.128;19.730;2023-07-13T02:39:48;24.80;66.10
38263;DHT22;24054;50.128;19.730;2023-07-13T02:42:15;24.80;66.10
38263;DHT22;24054;50.128;19.730;2023-07-13T02:44:42;24.80;66.10
38263;DHT22;24054;50.128;19.730;2023-07-13T02:47:11;24.80;66.10
38263;DHT22;24054;50.128;19.730;2023-07-13T02:49:38;24.80;66.10
38263;DHT22;24054;50.128;19.730;2023-07-13T02:52:06;24.80;66.10
38263;DHT22;24054;50.128;19.730;2023-07-13T02:54:33;24.80;66.10
38263;DHT22;24054;50.128;19.730;2023-07-13T02:57:00;24.80;66.10
38263;DHT22;24054;50.128;19.730;2023-07-13T02:59:27;24.80;66.10
38263;DHT22;24054;50.128;19.730;2023-07-13T03:01:54;24.80;66.10
38263;DHT22;24054;50.128;19.730;2023-07-13T03:04:24;24.80;66.10
38263;DHT22;24054;50.128;19.730;2023-07-13T03:06:51;24.80;66.20
38263;DHT22;24054;50.128;19.730;2023-07-13T03:09:18;24.80;66.20
38263;DHT22;24054;50.128;19.730;2023-07-13T03:11:45;24.80;66.20
38263;DHT22;24054;50.128;19.730;2023-07-13T03:14:12;24.80;66.20
38263;DHT22;24054;50.128;19.730;2023-07-13T03:16:38;24.80;66.20
38263;DHT22;24054;50.128;19.730;2023-07-13T03:19:05;24.80;66.80
38263;DHT22;24054;50.128;19.730;2023-07-13T03:21:34;24.80;66.20
38263;DHT22;24054;50.128;19.730;2023-07-13T03:24:01;24.80;66.20
38263;DHT22;24054;50.128;19.730;2023-07-13T03:26:28;24.80;66.20
38263;DHT22;24054;50.128;19.730;2023-07-13T03:28:55;24.80;66.20
38263;DHT22;24054;50.128;19.730;2023-07-13T03:31:24;24.80;66.20
38263;DHT22;24054;50.128;19.730;2023-07-13T03:33:51;24.80;66.20
38263;DHT22;24054;50.128;19.730;2023-07-13T03:36:20;24.80;66.20
38263;DHT22;24054;50.128;19.730;2023-07-13T03:38:50;24.70;66.10
38263;DHT22;24054;50.128;19.730;2023-07-13T03:41:19;24.80;66.20
38263;DHT22;24054;50.128;19.730;2023-07-13T03:43:46;24.80;66.20
38263;DHT22;24054;50.128;19.730;2023-07-13T03:46:14;24.70;66.20
38263;DHT22;24054;50.128;19.730;2023-07-13T03:48:41;24.70;66.20
38263;DHT22;24054;50.128;19.730;2023-07-13T03:51:10;24.70;66.20
38263;DHT22;24054;50.128;19.730;2023-07-13T03:53:40;24.70;66.20
38263;DHT22;24054;50.128;19.730;2023-07-13T03:56:09;24.70;66.20
38263;DHT22;24054;50.128;19.730;2023-07-13T03:58:38;24.70;66.20
38263;DHT22;24054;50.128;19.730;2023-07-13T04:01:05;24.70;66.20
38263;DHT22;24054;50.128;19.730;2023-07-13T04:03:33;24.70;66.10
38263;DHT22;24054;50.128;19.730;2023-07-13T04:06:01;24.70;66.80
38263;DHT22;24054;50.128;19.730;2023-07-13T04:08:29;24.70;66.20
38263;DHT22;24054;50.128;19.730;2023-07-13T04:10:57;24.70;66.20
38263;DHT22;24054;50.128;19.730;2023-07-13T04:13:26;24.70;66.20
38263;DHT22;24054;50.128;19.730;2023-07-13T04:15:54;24.80;66.20
38263;DHT22;24054;50.128;19.730;2023-07-13T04:18:23;24.80;66.20
38263;DHT22;24054;50.128;19.730;2023-07-13T04:20:51;24.70;66.20
38263;DHT22;24054;50.128;19.730;2023-07-13T04:23:18;24.70;66.20
38263;DHT22;24054;50.128;19.730;2023-07-13T04:25:45;24.70;66.20
38263;DHT22;24054;50.128;19.730;2023-07-13T04:28:14;24.70;66.20
38263;DHT22;24054;50.128;19.730;2023-07-13T04:30:43;24.70;66.20
38263;DHT22;24054;50.128;19.730;2023-07-13T04:33:10;24.70;66.20
38263;DHT22;24054;50.128;19.730;2023-07-13T04:35:37;24.70;66.20
38263;DHT22;24054;50.128;19.730;2023-07-13T04:38:04;24.70;66.10
38263;DHT22;24054;50.128;19.730;2023-07-13T04:40:31;24.70;66.20
38263;DHT22;24054;50.128;19.730;2023-07-13T04:42:58;24.70;66.10
38263;DHT22;24054;50.128;19.730;2023-07-13T04:45:25;24.70;66.20
38263;DHT22;24054;50.128;19.730;2023-07-13T04:47:53;24.70;66.20
38263;DHT22;24054;50.128;19.730;2023-07-13T04:50:20;24.70;66.10
38263;DHT22;24054;50.128;19.730;2023-07-13T04:52:49;24.70;66.20
38263;DHT22;24054;50.128;19.730;2023-07-13T04:55:17;24.70;66.20
38263;DHT22;24054;50.128;19.730;2023-07-13T04:57:44;24.70;66.20
38263;DHT22;24054;50.128;19.730;2023-07-13T05:00:13;24.70;66.20
38263;DHT22;24054;50.128;19.730;2023-07-13T05:02:43;24.70;66.20
38263;DHT22;24054;50.128;19.730;2023-07-13T05:05:12;24.70;66.20
38263;DHT22;24054;50.128;19.730;2023-07-13T05:07:39;24.70;66.20
38263;DHT22;24054;50.128;19.730;2023-07-13T05:10:07;24.70;66.20
38263;DHT22;24054;50.128;19.730;2023-07-13T05:12:34;24.70;66.20
38263;DHT22;24054;50.128;19.730;2023-07-13T05:15:02;24.70;66.30
38263;DHT22;24054;50.128;19.730;2023-07-13T05:17:29;24.70;66.20
38263;DHT22;24054;50.128;19.730;2023-07-13T05:19:56;24.70;66.30
38263;DHT22;24054;50.128;19.730;2023-07-13T05:22:24;24.70;66.30
38263;DHT22;24054;50.128;19.730;2023-07-13T05:24:51;24.70;66.20
38263;DHT22;24054;50.128;19.730;2023-07-13T05:27:21;24.70;66.40
38263;DHT22;24054;50.128;19.730;2023-07-13T05:29:49;24.70;66.40
38263;DHT22;24054;50.128;19.730;2023-07-13T05:32:18;24.70;66.40
38263;DHT22;24054;50.128;19.730;2023-07-13T05:34:45;24.70;66.40
38263;DHT22;24054;50.128;19.730;2023-07-13T05:37:12;24.70;66.40
38263;DHT22;24054;50.128;19.730;2023-07-13T05:39:40;24.70;66.50
38263;DHT22;24054;50.128;19.730;2023-07-13T05:42:07;24.70;66.60
38263;DHT22;24054;50.128;19.730;2023-07-13T05:44:34;24.70;66.60
38263;DHT22;24054;50.128;19.730;2023-07-13T05:47:01;24.70;66.90
38263;DHT22;24054;50.128;19.730;2023-07-13T05:49:28;24.70;67.30
38263;DHT22;24054;50.128;19.730;2023-07-13T05:52:01;24.70;67.70
38263;DHT22;24054;50.128;19.730;2023-07-13T05:54:28;24.70;68.00
38263;DHT22;24054;50.128;19.730;2023-07-13T05:56:57;24.80;68.00
38263;DHT22;24054;50.128;19.730;2023-07-13T05:59:24;24.80;68.00
38263;DHT22;24054;50.128;19.730;2023-07-13T06:01:51;24.80;67.80
38263;DHT22;24054;50.128;19.730;2023-07-13T06:04:20;24.80;67.70
38263;DHT22;24054;50.128;19.730;2023-07-13T06:06:47;24.80;67.60
38263;DHT22;24054;50.128;19.730;2023-07-13T06:09:14;24.80;67.70
38263;DHT22;24054;50.128;19.730;2023-07-13T06:11:43;24.90;68.00
38263;DHT22;24054;50.128;19.730;2023-07-13T06:14:11;24.80;67.70
38263;DHT22;24054;50.128;19.730;2023-07-13T06:16:39;24.80;68.00
38263;DHT22;24054;50.128;19.730;2023-07-13T06:19:07;24.90;68.00
38263;DHT22;24054;50.128;19.730;2023-07-13T06:21:33;24.90;69.30
38263;DHT22;24054;50.128;19.730;2023-07-13T06:24:00;24.90;68.60
38263;DHT22;24054;50.128;19.730;2023-07-13T06:26:28;24.90;69.30
38263;DHT22;24054;50.128;19.730;2023-07-13T06:28:55;24.90;69.50
38263;DHT22;24054;50.128;19.730;2023-07-13T06:31:23;24.90;69.30
38263;DHT22;24054;50.128;19.730;2023-07-13T06:33:50;24.90;69.60
38263;DHT22;24054;50.128;19.730;2023-07-13T06:36:17;24.90;69.50
38263;DHT22;24054;50.128;19.730;2023-07-13T06:38:44;24.90;70.00
38263;DHT22;24054;50.128;19.730;2023-07-13T06:41:12;24.90;70.30
38263;DHT22;24054;50.128;19.730;2023-07-13T06:43:39;24.90;70.30
38263;DHT22;24054;50.128;19.730;2023-07-13T06:46:07;25.00;70.70
38263;DHT22;24054;50.128;19.730;2023-07-13T06:48:35;24.90;71.20
38263;DHT22;24054;50.128;19.730;2023-07-13T06:51:03;24.90;71.90
38263;DHT22;24054;50.128;19.730;2023-07-13T06:53:30;25.00;71.80
38263;DHT22;24054;50.128;19.730;2023-07-13T06:55:57;25.00;71.90
38263;DHT22;24054;50.128;19.730;2023-07-13T06:58:24;25.00;72.30
38263;DHT22;24054;50.128;19.730;2023-07-13T07:00:52;25.00;71.60
38263;DHT22;24054;50.128;19.730;2023-07-13T07:03:19;25.00;71.90
38263;DHT22;24054;50.128;19.730;2023-07-13T07:05:48;25.00;71.60
38263;DHT22;24054;50.128;19.730;2023-07-13T07:08:15;25.00;72.50
38263;DHT22;24054;50.128;19.730;2023-07-13T07:10:42;25.00;72.50
38263;DHT22;24054;50.128;19.730;2023-07-13T07:13:09;25.00;72.00
38263;DHT22;24054;50.128;19.730;2023-07-13T07:15:36;25.10;72.10
38263;DHT22;24054;50.128;19.730;2023-07-13T07:18:04;25.10;72.30
38263;DHT22;24054;50.128;19.730;2023-07-13T07:20:31;25.10;72.00
38263;DHT22;24054;50.128;19.730;2023-07-13T07:23:00;25.10;72.20
38263;DHT22;24054;50.128;19.730;2023-07-13T07:25:27;25.20;72.30
38263;DHT22;24054;50.128;19.730;2023-07-13T07:27:57;25.20;72.40
38263;DHT22;24054;50.128;19.730;2023-07-13T07:30:24;25.30;72.40
38263;DHT22;24054;50.128;19.730;2023-07-13T07:32:51;25.20;72.50
38263;DHT22;24054;50.128;19.730;2023-07-13T07:35:19;25.30;73.00
38263;DHT22;24054;50.128;19.730;2023-07-13T07:37:46;25.30;72.80
38263;DHT22;24054;50.128;19.730;2023-07-13T07:40:15;25.30;72.80
38263;DHT22;24054;50.128;19.730;2023-07-13T07:42:41;25.30;72.70
38263;DHT22;24054;50.128;19.730;2023-07-13T07:45:09;25.30;72.60
38263;DHT22;24054;50.128;19.730;2023-07-13T07:47:37;25.30;72.50
38263;DHT22;24054;50.128;19.730;2023-07-13T07:50:05;25.30;72.20
38263;DHT22;24054;50.128;19.730;2023-07-13T07:52:32;25.40;72.50
38263;DHT22;24054;50.128;19.730;2023-07-13T07:55:01;25.30;72.20
38263;DHT22;24054;50.128;19.730;2023-07-13T07:57:30;25.40;72.00
38263;DHT22;24054;50.128;19.730;2023-07-13T07:59:56;25.40;72.20
38263;DHT22;24054;50.128;19.730;2023-07-13T08:02:24;25.40;72.10
38263;DHT22;24054;50.128;19.730;2023-07-13T08:04:51;25.40;71.80
38263;DHT22;24054;50.128;19.730;2023-07-13T08:08:02;25.50;71.90
38263;DHT22;24054;50.128;19.730;2023-07-13T08:11:02;25.50;72.00
38263;DHT22;24054;50.128;19.730;2023-07-13T08:20:54;25.60;72.20
38263;DHT22;24054;50.128;19.730;2023-07-13T08:23:44;25.60;72.00
38263;DHT22;24054;50.128;19.730;2023-07-13T08:26:44;25.70;72.20
38263;DHT22;24054;50.128;19.730;2023-07-13T08:29:55;25.70;72.20
38263;DHT22;24054;50.128;19.730;2023-07-13T08:32:55;25.70;72.50
38263;DHT22;24054;50.128;19.730;2023-07-13T08:42:57;25.80;72.10
38263;DHT22;24054;50.128;19.730;2023-07-13T08:45:37;25.80;71.60
38263;DHT22;24054;50.128;19.730;2023-07-13T08:48:28;25.80;71.20
38263;DHT22;24054;50.128;19.730;2023-07-13T08:53:57;25.90;70.70
38263;DHT22;24054;50.128;19.730;2023-07-13T08:56:37;25.90;70.40
38263;DHT22;24054;50.128;19.730;2023-07-13T08:59:13;25.90;70.30
38263;DHT22;24054;50.128;19.730;2023-07-13T09:02:06;25.90;70.20
38263;DHT22;24054;50.128;19.730;2023-07-13T09:04:45;25.90;69.80
38263;DHT22;24054;50.128;19.730;2023-07-13T09:07:21;25.90;68.70
38263;DHT22;24054;50.128;19.730;2023-07-13T09:10:01;25.80;67.90
38263;DHT22;24054;50.128;19.730;2023-07-13T09:16:00;25.80;67.20
38263;DHT22;24054;50.128;19.730;2023-07-13T09:18:30;25.80;67.40
38263;DHT22;24054;50.128;19.730;2023-07-13T09:21:02;25.80;67.70
38263;DHT22;24054;50.128;19.730;2023-07-13T09:23:30;25.80;67.90
38263;DHT22;24054;50.128;19.730;2023-07-13T09:26:02;25.80;68.20
38263;DHT22;24054;50.128;19.730;2023-07-13T09:28:38;25.80;68.20
38263;DHT22;24054;50.128;19.730;2023-07-13T09:31:11;25.80;68.30
38263;DHT22;24054;50.128;19.730;2023-07-13T09:33:40;25.80;68.40
38263;DHT22;24054;50.128;19.730;2023-07-13T09:36:18;25.80;68.40
38263;DHT22;24054;50.128;19.730;2023-07-13T09:38:47;25.80;68.40
38263;DHT22;24054;50.128;19.730;2023-07-13T09:41:21;25.80;68.20
38263;DHT22;24054;50.128;19.730;2023-07-13T09:44:07;25.80;67.80
38263;DHT22;24054;50.128;19.730;2023-07-13T09:46:39;25.70;68.30
38263;DHT22;24054;50.128;19.730;2023-07-13T09:49:10;25.80;68.50
38263;DHT22;24054;50.128;19.730;2023-07-13T09:51:37;25.80;68.50
38263;DHT22;24054;50.128;19.730;2023-07-13T09:54:05;25.80;68.60
38263;DHT22;24054;50.128;19.730;2023-07-13T09:56:32;25.70;68.40
38263;DHT22;24054;50.128;19.730;2023-07-13T09:58:59;25.70;68.30
38263;DHT22;24054;50.128;19.730;2023-07-13T10:01:35;25.70;68.30
38263;DHT22;24054;50.128;19.730;2023-07-13T10:04:10;25.70;68.30
38263;DHT22;24054;50.128;19.730;2023-07-13T10:06:40;25.70;68.10
38263;DHT22;24054;50.128;19.730;2023-07-13T10:09:09;25.70;68.30
38263;DHT22;24054;50.128;19.730;2023-07-13T10:11:39;25.70;68.20
38263;DHT22;24054;50.128;19.730;2023-07-13T10:14:13;25.70;68.50
38263;DHT22;24054;50.128;19.730;2023-07-13T10:16:43;25.80;68.50
38263;DHT22;24054;50.128;19.730;2023-07-13T10:19:15;25.70;68.40
38263;DHT22;24054;50.128;19.730;2023-07-13T10:21:50;25.70;68.20
38263;DHT22;24054;50.128;19.730;2023-07-13T10:24:22;25.70;67.70
38263;DHT22;24054;50.128;19.730;2023-07-13T10:26:54;25.70;67.70
38263;DHT22;24054;50.128;19.730;2023-07-13T10:29:24;25.70;67.70
38263;DHT22;24054;50.128;19.730;2023-07-13T10:31:52;25.70;67.60
38263;DHT22;24054;50.128;19.730;2023-07-13T10:34:20;25.80;67.70
38263;DHT22;24054;50.128;19.730;2023-07-13T10:36:49;25.70;67.70
38263;DHT22;24054;50.128;19.730;2023-07-13T10:39:22;25.70;67.70
38263;DHT22;24054;50.128;19.730;2023-07-13T10:41:53;25.70;67.80
38263;DHT22;24054;50.128;19.730;2023-07-13T10:44:23;25.70;67.90
38263;DHT22;24054;50.128;19.730;2023-07-13T10:46:57;25.70;67.90
38263;DHT22;24054;50.128;19.730;2023-07-13T10:49:27;25.70;67.90
38263;DHT22;24054;50.128;19.730;2023-07-13T10:51:55;25.70;67.90
38263;DHT22;24054;50.128;19.730;2023-07-13T10:54:27;25.70;68.00
38263;DHT22;24054;50.128;19.730;2023-07-13T10:57:13;25.70;67.80
38263;DHT22;24054;50.128;19.730;2023-07-13T10:59:42;25.70;68.20
38263;DHT22;24054;50.128;19.730;2023-07-13T11:02:23;25.60;68.40
38263;DHT22;24054;50.128;19.730;2023-07-13T11:04:54;25.60;68.50
38263;DHT22;24054;50.128;19.730;2023-07-13T11:07:25;25.50;69.10
38263;DHT22;24054;50.128;19.730;2023-07-13T11:09:55;25.50;69.10
38263;DHT22;24054;50.128;19.730;2023-07-13T11:12:52;25.50;69.20
38263;DHT22;24054;50.128;19.730;2023-07-13T11:15:32;25.50;69.50
38263;DHT22;24054;50.128;19.730;2023-07-13T11:18:03;25.40;69.70
38263;DHT22;24054;50.128;19.730;2023-07-13T11:20:35;25.50;69.90
38263;DHT22;24054;50.128;19.730;2023-07-13T11:26:02;25.50;70.30
38263;DHT22;24054;50.128;19.730;2023-07-13T11:28:31;25.50;70.00
38263;DHT22;24054;50.128;19.730;2023-07-13T11:31:02;25.50;69.90
38263;DHT22;24054;50.128;19.730;2023-07-13T11:36:39;25.50;69.40
38263;DHT22;24054;50.128;19.730;2023-07-13T11:39:19;25.50;68.70
38263;DHT22;24054;50.128;19.730;2023-07-13T11:41:50;25.50;68.50
38263;DHT22;24054;50.128;19.730;2023-07-13T11:44:20;25.50;68.10
38263;DHT22;24054;50.128;19.730;2023-07-13T11:46:48;25.40;67.80
38263;DHT22;24054;50.128;19.730;2023-07-13T11:49:17;25.40;67.50
38263;DHT22;24054;50.128;19.730;2023-07-13T11:51:46;25.40;67.40
38263;DHT22;24054;50.128;19.730;2023-07-13T11:54:24;25.40;67.40
38263;DHT22;24054;50.128;19.730;2023-07-13T11:56:52;25.00;64.30
38263;DHT22;24054;50.128;19.730;2023-07-13T11:59:19;24.80;65.60
38263;DHT22;24054;50.128;19.730;2023-07-13T12:01:51;24.90;66.00
38263;DHT22;24054;50.128;19.730;2023-07-13T12:04:22;24.90;66.10
38263;DHT22;24054;50.128;19.730;2023-07-13T12:06:56;25.00;66.10
38263;DHT22;24054;50.128;19.730;2023-07-13T12:09:27;25.00;66.10
38263;DHT22;24054;50.128;19.730;2023-07-13T12:11:55;25.00;66.00
38263;DHT22;24054;50.128;19.730;2023-07-13T12:14:23;25.00;66.00
38263;DHT22;24054;50.128;19.730;2023-07-13T12:16:52;25.00;66.00
38263;DHT22;24054;50.128;19.730;2023-07-13T12:19:22;25.00;66.00
38263;DHT22;24054;50.128;19.730;2023-07-13T12:21:52;25.00;66.00
38263;DHT22;24054;50.128;19.730;2023-07-13T12:24:25;25.10;66.00
38263;DHT22;24054;50.128;19.730;2023-07-13T12:26:54;25.10;66.10
38263;DHT22;24054;50.128;19.730;2023-07-13T12:29:21;25.10;66.00
38263;DHT22;24054;50.128;19.730;2023-07-13T12:31:49;25.00;65.90
38263;DHT22;24054;50.128;19.730;2023-07-13T12:34:21;25.10;66.00
38263;DHT22;24054;50.128;19.730;2023-07-13T12:36:50;25.10;66.10
38263;DHT22;24054;50.128;19.730;2023-07-13T12:39:20;25.10;66.10
38263;DHT22;24054;50.128;19.730;2023-07-13T12:41:49;25.10;66.10
38263;DHT22;24054;50.128;19.730;2023-07-13T12:44:18;25.10;66.10
38263;DHT22;24054;50.128;19.730;2023-07-13T12:46:58;25.10;66.00
38263;DHT22;24054;50.128;19.730;2023-07-13T12:49:30;25.10;66.30
38263;DHT22;24054;50.128;19.730;2023-07-13T12:52:02;25.10;66.60
38263;DHT22;24054;50.128;19.730;2023-07-13T12:54:30;25.10;66.80
38263;DHT22;24054;50.128;19.730;2023-07-13T12:56:59;25.20;67.10
38263;DHT22;24054;50.128;19.730;2023-07-13T12:59:31;25.20;67.30
38263;DHT22;24054;50.128;19.730;2023-07-13T13:02:02;25.20;67.30
38263;DHT22;24054;50.128;19.730;2023-07-13T13:04:39;25.20;67.40
38263;DHT22;24054;50.128;19.730;2023-07-13T13:07:09;25.20;67.60
38263;DHT22;24054;50.128;19.730;2023-07-13T13:09:36;25.30;67.90
38263;DHT22;24054;50.128;19.730;2023-07-13T13:12:06;25.30;67.90
38263;DHT22;24054;50.128;19.730;2023-07-13T13:14:33;25.30;68.00
38263;DHT22;24054;50.128;19.730;2023-07-13T13:17:02;25.30;68.30
38263;DHT22;24054;50.128;19.730;2023-07-13T13:19:29;25.30;67.90
38263;DHT22;24054;50.128;19.730;2023-07-13T13:21:57;25.30;66.90
38263;DHT22;24054;50.128;19.730;2023-07-13T13:24:27;25.20;65.60
38263;DHT22;24054;50.128;19.730;2023-07-13T13:26:55;25.00;65.90
38263;DHT22;24054;50.128;19.730;2023-07-13T13:29:24;25.00;66.10
38263;DHT22;24054;50.128;19.730;2023-07-13T13:31:52;24.90;66.60
38263;DHT22;24054;50.128;19.730;2023-07-13T13:34:22;24.70;67.40
38263;DHT22;24054;50.128;19.730;2023-07-13T13:36:50;24.60;68.00
38263;DHT22;24054;50.128;19.730;2023-07-13T13:39:19;24.50;67.90
38263;DHT22;24054;50.128;19.730;2023-07-13T13:41:46;24.40;68.90
38263;DHT22;24054;50.128;19.730;2023-07-13T13:44:15;24.40;68.60
38263;DHT22;24054;50.128;19.730;2023-07-13T13:46:45;24.40;68.90
38263;DHT22;24054;50.128;19.730;2023-07-13T13:49:15;24.40;67.60
38263;DHT22;24054;50.128;19.730;2023-07-13T13:51:43;24.30;67.30
38263;DHT22;24054;50.128;19.730;2023-07-13T13:54:12;24.30;67.80
38263;DHT22;24054;50.128;19.730;2023-07-13T13:56:43;24.20;67.90
38263;DHT22;24054;50.128;19.730;2023-07-13T13:59:10;24.20;68.60
38263;DHT22;24054;50.128;19.730;2023-07-13T14:01:38;24.30;68.60
38263;DHT22;24054;50.128;19.730;2023-07-13T14:04:09;24.20;68.80
38263;DHT22;24054;50.128;19.730;2023-07-13T14:06:40;24.20;68.60
38263;DHT22;24054;50.128;19.730;2023-07-13T14:09:09;24.10;69.00
38263;DHT22;24054;50.128;19.730;2023-07-13T14:11:37;24.10;69.20
38263;DHT22;24054;50.128;19.730;2023-07-13T14:14:11;24.10;69.40
38263;DHT22;24054;50.128;19.730;2023-07-13T14:16:39;24.10;69.50
38263;DHT22;24054;50.128;19.730;2023-07-13T14:19:11;24.10;69.80
38263;DHT22;24054;50.128;19.730;2023-07-13T14:21:40;24.10;70.30
38263;DHT22;24054;50.128;19.730;2023-07-13T14:24:07;24.00;70.50
38263;DHT22;24054;50.128;19.730;2023-07-13T14:26:39;24.00;70.80
38263;DHT22;24054;50.128;19.730;2023-07-13T14:29:13;24.00;70.50
38263;DHT22;24054;50.128;19.730;2023-07-13T14:31:43;24.00;70.80
38263;DHT22;24054;50.128;19.730;2023-07-13T14:34:12;24.00;70.70
38263;DHT22;24054;50.128;19.730;2023-07-13T14:36:42;24.00;70.50
38263;DHT22;24054;50.128;19.730;2023-07-13T14:39:13;24.00;71.00
38263;DHT22;24054;50.128;19.730;2023-07-13T14:41:40;24.20;70.60
38263;DHT22;24054;50.128;19.730;2023-07-13T14:44:11;24.20;70.90
38263;DHT22;24054;50.128;19.730;2023-07-13T14:46:39;24.30;70.60
38263;DHT22;24054;50.128;19.730;2023-07-13T14:49:10;24.30;70.70
38263;DHT22;24054;50.128;19.730;2023-07-13T14:51:41;24.40;70.50
38263;DHT22;24054;50.128;19.730;2023-07-13T14:54:08;24.40;70.30
38263;DHT22;24054;50.128;19.730;2023-07-13T14:56:36;24.40;70.00
38263;DHT22;24054;50.128;19.730;2023-07-13T14:59:04;24.50;69.90
38263;DHT22;24054;50.128;19.730;2023-07-13T15:01:33;24.50;69.90
38263;DHT22;24054;50.128;19.730;2023-07-13T15:04:01;24.50;69.90
38263;DHT22;24054;50.128;19.730;2023-07-13T15:06:30;24.50;69.70
38263;DHT22;24054;50.128;19.730;2023-07-13T15:08:58;24.50;69.60
38263;DHT22;24054;50.128;19.730;2023-07-13T15:11:25;24.50;69.50
38263;DHT22;24054;50.128;19.730;2023-07-13T15:13:52;24.60;69.40
38263;DHT22;24054;50.128;19.730;2023-07-13T15:16:23;24.50;69.10
38263;DHT22;24054;50.128;19.730;2023-07-13T15:18:51;24.60;69.00
38263;DHT22;24054;50.128;19.730;2023-07-13T15:21:22;24.60;68.80
38263;DHT22;24054;50.128;19.730;2023-07-13T15:23:51;24.60;68.60
38263;DHT22;24054;50.128;19.730;2023-07-13T15:26:20;24.50;68.40
38263;DHT22;24054;50.128;19.730;2023-07-13T15:28:47;24.60;68.30
38263;DHT22;24054;50.128;19.730;2023-07-13T15:31:20;24.60;68.00
38263;DHT22;24054;50.128;19.730;2023-07-13T15:33:48;24.60;67.80
38263;DHT22;24054;50.128;19.730;2023-07-13T15:36:19;24.60;67.70
38263;DHT22;24054;50.128;19.730;2023-07-13T15:38:48;24.60;67.40
38263;DHT22;24054;50.128;19.730;2023-07-13T15:41:18;24.60;67.40
38263;DHT22;24054;50.128;19.730;2023-07-13T15:43:48;24.60;67.40
38263;DHT22;24054;50.128;19.730;2023-07-13T15:46:22;24.60;67.50
38263;DHT22;24054;50.128;19.730;2023-07-13T15:48:50;24.60;67.80
38263;DHT22;24054;50.128;19.730;2023-07-13T15:51:22;24.70;67.90
38263;DHT22;24054;50.128;19.730;2023-07-13T15:53:52;24.60;67.70
38263;DHT22;24054;50.128;19.730;2023-07-13T15:56:23;24.60;67.60
38263;DHT22;24054;50.128;19.730;2023-07-13T15:58:52;24.60;67.70